sensor_id;sensor_type;location;lat;lon;timestamp;P1;durP1;ratioP1;P2;durP2;ratioP2
71759;SDS011;59919;48.112;16.280;2023-05-20T00:00:56;2.40;;;2.20;;
71759;SDS011;59919;48.112;16.280;2023-05-20T00:03:27;2.33;;;2.13;;
71759;SDS011;59919;48.112;16.280;2023-05-20T00:06:01;3.53;;;2.40;;
71759;SDS011;59919;48.112;16.280;2023-05-20T00:08:33;2.97;;;2.67;;
71759;SDS011;59919;48.112;16.280;2023-05-20T00:11:06;2.55;;;2.10;;
71759;SDS011;59919;48.112;16.280;2023-05-20T00:13:38;2.45;;;2.25;;
71759;SDS011;59919;48.112;16.280;2023-05-20T00:16:12;2.60;;;2.40;;
71759;SDS011;59919;48.112;16.280;2023-05-20T00:21:22;2.78;;;2.50;;
71759;SDS011;59919;48.112;16.280;2023-05-20T00:23:55;3.10;;;2.53;;
71759;SDS011;59919;48.112;16.280;2023-05-20T00:26:29;2.42;;;2.22;;
71759;SDS011;59919;48.112;16.280;2023-05-20T00:29:02;3.15;;;2.80;;
71759;SDS011;59919;48.112;16.280;2023-05-20T00:31:36;2.40;;;2.20;;
71759;SDS011;59919;48.112;16.280;2023-05-20T00:34:10;2.60;;;2.40;;
71759;SDS011;59919;48.112;16.280;2023-05-20T00:36:41;3.08;;;2.78;;
71759;SDS011;59919;48.112;16.280;2023-05-20T00:39:14;3.28;;;2.95;;
71759;SDS011;59919;48.112;16.280;2023-05-20T00:41:45;3.17;;;2.78;;
71759;SDS011;59919;48.112;16.280;2023-05-20T00:44:16;3.00;;;2.70;;
71759;SDS011;59919;48.112;16.280;2023-05-20T00:46:55;4.03;;;2.97;;
71759;SDS011;59919;48.112;16.280;2023-05-20T00:49:27;3.65;;;2.88;;
71759;SDS011;59919;48.112;16.280;2023-05-20T00:52:01;3.13;;;2.83;;
71759;SDS011;59919;48.112;16.280;2023-05-20T00:54:38;4.13;;;2.70;;
71759;SDS011;59919;48.112;16.280;2023-05-20T00:57:10;3.90;;;2.55;;
71759;SDS011;59919;48.112;16.280;2023-05-20T00:59:43;6.32;;;2.65;;
71759;SDS011;59919;48.112;16.280;2023-05-20T01:02:17;4.30;;;3.22;;
71759;SDS011;59919;48.112;16.280;2023-05-20T01:04:51;4.97;;;3.03;;
71759;SDS011;59919;48.112;16.280;2023-05-20T01:07:26;3.78;;;3.22;;
71759;SDS011;59919;48.112;16.280;2023-05-20T01:09:57;3.28;;;2.97;;
71759;SDS011;59919;48.112;16.280;2023-05-20T01:12:41;11.27;;;3.75;;
71759;SDS011;59919;48.112;16.280;2023-05-20T01:15:16;3.45;;;3.13;;
71759;SDS011;59919;48.112;16.280;2023-05-20T01:17:51;3.65;;;3.33;;
71759;SDS011;59919;48.112;16.280;2023-05-20T01:20:27;3.22;;;2.92;;
71759;SDS011;59919;48.112;16.280;2023-05-20T01:23:02;5.75;;;3.25;;
71759;SDS011;59919;48.112;16.280;2023-05-20T01:25:33;3.60;;;3.30;;
71759;SDS011;59919;48.112;16.280;2023-05-20T01:28:04;3.25;;;2.95;;
71759;SDS011;59919;48.112;16.280;2023-05-20T01:30:38;4.00;;;3.60;;
71759;SDS011;59919;48.112;16.280;2023-05-20T01:33:14;4.15;;;3.67;;
71759;SDS011;59919;48.112;16.280;2023-05-20T01:35:52;3.70;;;3.30;;
71759;SDS011;59919;48.112;16.280;2023-05-20T01:38:27;3.53;;;3.22;;
71759;SDS011;59919;48.112;16.280;2023-05-20T01:40:58;3.90;;;3.50;;
71759;SDS011;59919;48.112;16.280;2023-05-20T01:43:42;4.00;;;3.60;;
71759;SDS011;59919;48.112;16.280;2023-05-20T01:46:16;4.07;;;3.67;;
71759;SDS011;59919;48.112;16.280;2023-05-20T01:48:47;3.90;;;3.42;;
71759;SDS011;59919;48.112;16.280;2023-05-20T01:51:21;4.38;;;3.97;;
71759;SDS011;59919;48.112;16.280;2023-05-20T01:53:52;4.70;;;4.00;;
71759;SDS011;59919;48.112;16.280;2023-05-20T01:56:28;4.20;;;3.80;;
71759;SDS011;59919;48.112;16.280;2023-05-20T01:58:59;4.32;;;3.92;;
71759;SDS011;59919;48.112;16.280;2023-05-20T02:01:53;4.85;;;4.40;;
71759;SDS011;59919;48.112;16.280;2023-05-20T02:04:27;5.18;;;4.13;;
71759;SDS011;59919;48.112;16.280;2023-05-20T02:06:58;4.63;;;4.22;;
71759;SDS011;59919;48.112;16.280;2023-05-20T02:09:30;7.70;;;4.10;;
71759;SDS011;59919;48.112;16.280;2023-05-20T02:12:01;4.88;;;4.30;;
71759;SDS011;59919;48.112;16.280;2023-05-20T02:14:32;5.40;;;4.40;;
71759;SDS011;59919;48.112;16.280;2023-05-20T02:17:03;5.07;;;4.07;;
71759;SDS011;59919;48.112;16.280;2023-05-20T02:19:34;5.72;;;4.80;;
71759;SDS011;59919;48.112;16.280;2023-05-20T02:22:05;4.72;;;4.10;;
71759;SDS011;59919;48.112;16.280;2023-05-20T02:24:39;4.90;;;4.40;;
71759;SDS011;59919;48.112;16.280;2023-05-20T02:27:10;5.75;;;4.50;;
71759;SDS011;59919;48.112;16.280;2023-05-20T02:29:43;5.68;;;4.65;;
71759;SDS011;59919;48.112;16.280;2023-05-20T02:32:15;4.95;;;4.45;;
71759;SDS011;59919;48.112;16.280;2023-05-20T02:34:46;4.57;;;4.10;;
71759;SDS011;59919;48.112;16.280;2023-05-20T02:37:20;4.97;;;4.47;;
71759;SDS011;59919;48.112;16.280;2023-05-20T02:39:53;5.50;;;4.65;;
71759;SDS011;59919;48.112;16.280;2023-05-20T02:42:25;5.30;;;4.80;;
71759;SDS011;59919;48.112;16.280;2023-05-20T02:44:56;4.95;;;4.45;;
71759;SDS011;59919;48.112;16.280;2023-05-20T02:47:28;6.20;;;4.85;;
71759;SDS011;59919;48.112;16.280;2023-05-20T02:53:10;5.15;;;4.60;;
71759;SDS011;59919;48.112;16.280;2023-05-20T02:55:42;5.20;;;4.70;;
71759;SDS011;59919;48.112;16.280;2023-05-20T02:58:19;5.55;;;5.00;;
71759;SDS011;59919;48.112;16.280;2023-05-20T03:00:55;5.68;;;5.00;;
71759;SDS011;59919;48.112;16.280;2023-05-20T03:03:30;5.35;;;4.82;;
71759;SDS011;59919;48.112;16.280;2023-05-20T03:06:14;5.40;;;4.88;;
71759;SDS011;59919;48.112;16.280;2023-05-20T03:08:46;5.82;;;4.90;;
71759;SDS011;59919;48.112;16.280;2023-05-20T03:11:17;5.70;;;4.97;;
71759;SDS011;59919;48.112;16.280;2023-05-20T03:13:51;5.45;;;4.82;;
71759;SDS011;59919;48.112;16.280;2023-05-20T03:16:25;5.93;;;5.30;;
71759;SDS011;59919;48.112;16.280;2023-05-20T03:18:57;5.75;;;5.10;;
71759;SDS011;59919;48.112;16.280;2023-05-20T03:21:29;6.95;;;5.53;;
71759;SDS011;59919;48.112;16.280;2023-05-20T03:24:03;6.20;;;5.60;;
71759;SDS011;59919;48.112;16.280;2023-05-20T03:26:38;6.68;;;5.68;;
71759;SDS011;59919;48.112;16.280;2023-05-20T03:29:12;6.13;;;5.50;;
71759;SDS011;59919;48.112;16.280;2023-05-20T03:31:47;6.03;;;5.15;;
71759;SDS011;59919;48.112;16.280;2023-05-20T03:34:18;6.68;;;6.00;;
71759;SDS011;59919;48.112;16.280;2023-05-20T03:36:57;6.15;;;5.55;;
71759;SDS011;59919;48.112;16.280;2023-05-20T03:39:34;6.07;;;5.47;;
71759;SDS011;59919;48.112;16.280;2023-05-20T03:42:05;6.65;;;5.45;;
71759;SDS011;59919;48.112;16.280;2023-05-20T03:44:39;6.35;;;5.70;;
71759;SDS011;59919;48.112;16.280;2023-05-20T03:47:10;6.60;;;5.88;;
71759;SDS011;59919;48.112;16.280;2023-05-20T03:49:44;5.90;;;5.30;;
71759;SDS011;59919;48.112;16.280;2023-05-20T03:52:18;7.03;;;6.30;;
71759;SDS011;59919;48.112;16.280;2023-05-20T03:54:49;6.93;;;6.03;;
71759;SDS011;59919;48.112;16.280;2023-05-20T03:57:23;7.25;;;5.72;;
71759;SDS011;59919;48.112;16.280;2023-05-20T03:59:54;6.80;;;6.13;;
71759;SDS011;59919;48.112;16.280;2023-05-20T04:02:28;8.30;;;6.75;;
71759;SDS011;59919;48.112;16.280;2023-05-20T04:04:59;7.40;;;6.53;;
71759;SDS011;59919;48.112;16.280;2023-05-20T04:07:31;7.53;;;5.63;;
71759;SDS011;59919;48.112;16.280;2023-05-20T04:10:02;7.13;;;6.07;;
71759;SDS011;59919;48.112;16.280;2023-05-20T04:12:39;6.95;;;6.03;;
71759;SDS011;59919;48.112;16.280;2023-05-20T04:15:13;6.55;;;5.95;;
71759;SDS011;59919;48.112;16.280;2023-05-20T04:17:44;7.80;;;6.60;;
71759;SDS011;59919;48.112;16.280;2023-05-20T04:20:20;7.15;;;6.45;;
71759;SDS011;59919;48.112;16.280;2023-05-20T04:22:55;8.15;;;6.72;;
71759;SDS011;59919;48.112;16.280;2023-05-20T04:25:26;7.00;;;6.30;;
71759;SDS011;59919;48.112;16.280;2023-05-20T04:28:00;7.45;;;6.50;;
71759;SDS011;59919;48.112;16.280;2023-05-20T04:30:32;8.75;;;6.85;;
71759;SDS011;59919;48.112;16.280;2023-05-20T04:33:03;8.10;;;6.43;;
71759;SDS011;59919;48.112;16.280;2023-05-20T04:35:34;7.65;;;6.63;;
71759;SDS011;59919;48.112;16.280;2023-05-20T04:38:09;7.28;;;6.45;;
71759;SDS011;59919;48.112;16.280;2023-05-20T04:40:43;7.63;;;6.70;;
71759;SDS011;59919;48.112;16.280;2023-05-20T04:43:17;6.53;;;5.82;;
71759;SDS011;59919;48.112;16.280;2023-05-20T04:45:51;8.48;;;7.15;;
71759;SDS011;59919;48.112;16.280;2023-05-20T04:48:26;6.50;;;5.88;;
71759;SDS011;59919;48.112;16.280;2023-05-20T04:50:57;7.72;;;6.47;;
71759;SDS011;59919;48.112;16.280;2023-05-20T04:53:31;7.68;;;6.40;;
71759;SDS011;59919;48.112;16.280;2023-05-20T04:56:03;7.40;;;6.60;;
71759;SDS011;59919;48.112;16.280;2023-05-20T04:58:35;8.00;;;6.60;;
71759;SDS011;59919;48.112;16.280;2023-05-20T05:01:07;7.47;;;6.65;;
71759;SDS011;59919;48.112;16.280;2023-05-20T05:03:38;7.88;;;6.88;;
71759;SDS011;59919;48.112;16.280;2023-05-20T05:06:09;8.02;;;7.00;;
71759;SDS011;59919;48.112;16.280;2023-05-20T05:08:43;8.00;;;7.18;;
71759;SDS011;59919;48.112;16.280;2023-05-20T05:11:17;7.43;;;6.63;;
71759;SDS011;59919;48.112;16.280;2023-05-20T05:13:54;8.18;;;7.32;;
71759;SDS011;59919;48.112;16.280;2023-05-20T05:16:25;8.80;;;7.20;;
71759;SDS011;59919;48.112;16.280;2023-05-20T05:18:56;7.22;;;6.35;;
71759;SDS011;59919;48.112;16.280;2023-05-20T05:21:27;8.30;;;6.78;;
71759;SDS011;59919;48.112;16.280;2023-05-20T05:24:01;8.18;;;7.03;;
71759;SDS011;59919;48.112;16.280;2023-05-20T05:26:32;8.02;;;6.68;;
71759;SDS011;59919;48.112;16.280;2023-05-20T05:29:03;7.57;;;6.78;;
71759;SDS011;59919;48.112;16.280;2023-05-20T05:31:36;8.88;;;7.07;;
71759;SDS011;59919;48.112;16.280;2023-05-20T05:34:11;7.78;;;6.78;;
71759;SDS011;59919;48.112;16.280;2023-05-20T05:36:44;8.13;;;7.30;;
71759;SDS011;59919;48.112;16.280;2023-05-20T05:39:18;8.20;;;7.00;;
71759;SDS011;59919;48.112;16.280;2023-05-20T05:41:52;9.50;;;7.50;;
71759;SDS011;59919;48.112;16.280;2023-05-20T05:44:26;7.70;;;6.65;;
71759;SDS011;59919;48.112;16.280;2023-05-20T05:46:57;8.27;;;7.18;;
71759;SDS011;59919;48.112;16.280;2023-05-20T05:49:31;8.48;;;7.55;;
71759;SDS011;59919;48.112;16.280;2023-05-20T05:52:05;8.60;;;7.40;;
71759;SDS011;59919;48.112;16.280;2023-05-20T05:54:40;7.80;;;7.00;;
71759;SDS011;59919;48.112;16.280;2023-05-20T05:57:11;9.10;;;7.18;;
71759;SDS011;59919;48.112;16.280;2023-05-20T05:59:50;7.13;;;6.38;;
71759;SDS011;59919;48.112;16.280;2023-05-20T06:02:23;8.63;;;6.95;;
71759;SDS011;59919;48.112;16.280;2023-05-20T06:04:57;8.50;;;7.35;;
71759;SDS011;59919;48.112;16.280;2023-05-20T06:07:28;8.30;;;7.00;;
71759;SDS011;59919;48.112;16.280;2023-05-20T06:09:59;8.80;;;7.20;;
71759;SDS011;59919;48.112;16.280;2023-05-20T06:12:35;8.20;;;7.28;;
71759;SDS011;59919;48.112;16.280;2023-05-20T06:15:09;8.48;;;7.13;;
71759;SDS011;59919;48.112;16.280;2023-05-20T06:17:41;8.98;;;7.10;;
71759;SDS011;59919;48.112;16.280;2023-05-20T06:20:13;7.80;;;6.22;;
71759;SDS011;59919;48.112;16.280;2023-05-20T06:22:49;8.13;;;6.90;;
71759;SDS011;59919;48.112;16.280;2023-05-20T06:25:21;7.93;;;7.00;;
71759;SDS011;59919;48.112;16.280;2023-05-20T06:27:54;8.27;;;6.65;;
71759;SDS011;59919;48.112;16.280;2023-05-20T06:30:28;9.30;;;7.18;;
71759;SDS011;59919;48.112;16.280;2023-05-20T06:32:59;9.23;;;7.32;;
71759;SDS011;59919;48.112;16.280;2023-05-20T06:35:35;8.38;;;6.28;;
71759;SDS011;59919;48.112;16.280;2023-05-20T06:38:09;8.38;;;6.72;;
71759;SDS011;59919;48.112;16.280;2023-05-20T06:40:43;8.50;;;6.82;;
71759;SDS011;59919;48.112;16.280;2023-05-20T06:43:19;7.47;;;6.67;;
71759;SDS011;59919;48.112;16.280;2023-05-20T06:45:52;7.38;;;6.55;;
71759;SDS011;59919;48.112;16.280;2023-05-20T06:48:24;9.48;;;7.05;;
71759;SDS011;59919;48.112;16.280;2023-05-20T06:50:57;8.50;;;6.90;;
71759;SDS011;59919;48.112;16.280;2023-05-20T06:53:31;8.95;;;7.57;;
71759;SDS011;59919;48.112;16.280;2023-05-20T06:56:08;8.43;;;7.13;;
71759;SDS011;59919;48.112;16.280;2023-05-20T06:58:39;7.60;;;6.75;;
71759;SDS011;59919;48.112;16.280;2023-05-20T07:01:11;8.27;;;6.90;;
71759;SDS011;59919;48.112;16.280;2023-05-20T07:03:44;8.27;;;7.22;;
71759;SDS011;59919;48.112;16.280;2023-05-20T07:06:15;7.82;;;6.75;;
71759;SDS011;59919;48.112;16.280;2023-05-20T07:08:48;8.52;;;6.57;;
71759;SDS011;59919;48.112;16.280;2023-05-20T07:11:20;6.75;;;5.45;;
71759;SDS011;59919;48.112;16.280;2023-05-20T07:13:51;8.55;;;6.95;;
71759;SDS011;59919;48.112;16.280;2023-05-20T07:16:23;7.70;;;6.47;;
71759;SDS011;59919;48.112;16.280;2023-05-20T07:18:55;7.55;;;6.70;;
71759;SDS011;59919;48.112;16.280;2023-05-20T07:21:29;8.27;;;7.05;;
71759;SDS011;59919;48.112;16.280;2023-05-20T07:24:00;7.70;;;6.57;;
71759;SDS011;59919;48.112;16.280;2023-05-20T07:26:35;8.05;;;6.57;;
71759;SDS011;59919;48.112;16.280;2023-05-20T07:29:12;8.25;;;7.05;;
71759;SDS011;59919;48.112;16.280;2023-05-20T07:31:43;8.80;;;7.22;;
71759;SDS011;59919;48.112;16.280;2023-05-20T07:34:19;8.07;;;7.20;;
71759;SDS011;59919;48.112;16.280;2023-05-20T07:36:52;9.27;;;6.68;;
71759;SDS011;59919;48.112;16.280;2023-05-20T07:39:23;7.20;;;6.50;;
71759;SDS011;59919;48.112;16.280;2023-05-20T07:41:54;7.25;;;6.47;;
71759;SDS011;59919;48.112;16.280;2023-05-20T07:44:31;8.20;;;6.53;;
71759;SDS011;59919;48.112;16.280;2023-05-20T07:47:02;7.18;;;6.47;;
71759;SDS011;59919;48.112;16.280;2023-05-20T07:49:36;6.65;;;5.90;;
71759;SDS011;59919;48.112;16.280;2023-05-20T07:52:07;7.78;;;6.60;;
71759;SDS011;59919;48.112;16.280;2023-05-20T07:54:41;6.75;;;5.93;;
71759;SDS011;59919;48.112;16.280;2023-05-20T07:57:12;7.60;;;6.53;;
71759;SDS011;59919;48.112;16.280;2023-05-20T07:59:43;7.57;;;6.13;;
71759;SDS011;59919;48.112;16.280;2023-05-20T08:02:16;6.88;;;6.18;;
71759;SDS011;59919;48.112;16.280;2023-05-20T08:04:50;6.25;;;5.60;;
71759;SDS011;59919;48.112;16.280;2023-05-20T08:07:21;6.85;;;6.13;;
71759;SDS011;59919;48.112;16.280;2023-05-20T08:09:58;6.47;;;5.82;;
71759;SDS011;59919;48.112;16.280;2023-05-20T08:12:30;6.60;;;5.88;;
71759;SDS011;59919;48.112;16.280;2023-05-20T08:15:04;6.72;;;6.05;;
71759;SDS011;59919;48.112;16.280;2023-05-20T08:17:35;6.70;;;6.00;;
71759;SDS011;59919;48.112;16.280;2023-05-20T08:20:10;6.38;;;5.78;;
71759;SDS011;59919;48.112;16.280;2023-05-20T08:22:42;6.65;;;5.88;;
71759;SDS011;59919;48.112;16.280;2023-05-20T08:25:15;6.22;;;5.38;;
71759;SDS011;59919;48.112;16.280;2023-05-20T08:27:53;7.68;;;6.05;;
71759;SDS011;59919;48.112;16.280;2023-05-20T08:30:26;7.40;;;5.90;;
71759;SDS011;59919;48.112;16.280;2023-05-20T08:33:00;6.45;;;5.82;;
71759;SDS011;59919;48.112;16.280;2023-05-20T08:35:33;7.78;;;6.15;;
71759;SDS011;59919;48.112;16.280;2023-05-20T08:38:10;6.53;;;5.80;;
71759;SDS011;59919;48.112;16.280;2023-05-20T08:40:43;6.75;;;5.72;;
71759;SDS011;59919;48.112;16.280;2023-05-20T08:45:52;7.57;;;5.60;;
71759;SDS011;59919;48.112;16.280;2023-05-20T08:48:29;6.63;;;5.47;;
71759;SDS011;59919;48.112;16.280;2023-05-20T08:51:02;6.57;;;5.88;;
71759;SDS011;59919;48.112;16.280;2023-05-20T08:53:34;6.25;;;5.40;;
71759;SDS011;59919;48.112;16.280;2023-05-20T08:56:06;7.90;;;6.28;;
71759;SDS011;59919;48.112;16.280;2023-05-20T08:58:39;6.47;;;5.50;;
71759;SDS011;59919;48.112;16.280;2023-05-20T09:03:47;6.30;;;5.13;;
71759;SDS011;59919;48.112;16.280;2023-05-20T09:06:20;6.03;;;5.32;;
71759;SDS011;59919;48.112;16.280;2023-05-20T09:08:57;6.22;;;5.63;;
71759;SDS011;59919;48.112;16.280;2023-05-20T09:11:30;6.20;;;5.60;;
71759;SDS011;59919;48.112;16.280;2023-05-20T09:14:01;5.72;;;5.03;;
71759;SDS011;59919;48.112;16.280;2023-05-20T09:16:35;5.97;;;5.22;;
71759;SDS011;59919;48.112;16.280;2023-05-20T09:19:06;6.07;;;5.47;;
71759;SDS011;59919;48.112;16.280;2023-05-20T09:21:42;5.22;;;4.72;;
71759;SDS011;59919;48.112;16.280;2023-05-20T09:24:19;5.25;;;4.65;;
71759;SDS011;59919;48.112;16.280;2023-05-20T09:26:52;6.13;;;5.38;;
71759;SDS011;59919;48.112;16.280;2023-05-20T09:29:24;5.88;;;5.28;;
71759;SDS011;59919;48.112;16.280;2023-05-20T09:31:55;5.18;;;4.68;;
71759;SDS011;59919;48.112;16.280;2023-05-20T09:34:29;5.68;;;5.00;;
71759;SDS011;59919;48.112;16.280;2023-05-20T09:37:09;5.25;;;4.72;;
71759;SDS011;59919;48.112;16.280;2023-05-20T09:39:55;6.10;;;5.07;;
71759;SDS011;59919;48.112;16.280;2023-05-20T09:45:11;5.32;;;4.82;;
71759;SDS011;59919;48.112;16.280;2023-05-20T09:47:43;5.40;;;4.65;;
71759;SDS011;59919;48.112;16.280;2023-05-20T09:50:19;5.55;;;4.72;;
71759;SDS011;59919;48.112;16.280;2023-05-20T09:52:54;5.15;;;4.65;;
71759;SDS011;59919;48.112;16.280;2023-05-20T09:55:28;6.43;;;4.82;;
71759;SDS011;59919;48.112;16.280;2023-05-20T09:58:04;4.95;;;4.43;;
71759;SDS011;59919;48.112;16.280;2023-05-20T10:00:36;5.38;;;4.38;;
71759;SDS011;59919;48.112;16.280;2023-05-20T10:03:07;5.47;;;4.65;;
71759;SDS011;59919;48.112;16.280;2023-05-20T10:05:57;4.93;;;4.38;;
71759;SDS011;59919;48.112;16.280;2023-05-20T10:14:52;5.07;;;4.45;;
71759;SDS011;59919;48.112;16.280;2023-05-20T10:19:56;4.38;;;3.85;;
71759;SDS011;59919;48.112;16.280;2023-05-20T10:22:31;4.88;;;4.38;;
71759;SDS011;59919;48.112;16.280;2023-05-20T10:25:05;4.28;;;3.78;;
71759;SDS011;59919;48.112;16.280;2023-05-20T10:27:43;4.18;;;3.78;;
71759;SDS011;59919;48.112;16.280;2023-05-20T10:30:19;4.72;;;4.22;;
71759;SDS011;59919;48.112;16.280;2023-05-20T10:32:54;4.68;;;4.20;;
71759;SDS011;59919;48.112;16.280;2023-05-20T10:35:29;4.75;;;4.28;;
71759;SDS011;59919;48.112;16.280;2023-05-20T10:38:10;4.50;;;4.10;;
71759;SDS011;59919;48.112;16.280;2023-05-20T10:40:41;4.43;;;3.85;;
71759;SDS011;59919;48.112;16.280;2023-05-20T10:43:16;4.30;;;3.90;;
71759;SDS011;59919;48.112;16.280;2023-05-20T10:45:57;4.13;;;3.72;;
71759;SDS011;59919;48.112;16.280;2023-05-20T10:48:35;5.00;;;4.03;;
71759;SDS011;59919;48.112;16.280;2023-05-20T10:51:12;4.28;;;3.88;;
71759;SDS011;59919;48.112;16.280;2023-05-20T10:53:44;4.40;;;3.80;;
71759;SDS011;59919;48.112;16.280;2023-05-20T10:56:16;4.43;;;3.75;;
71759;SDS011;59919;48.112;16.280;2023-05-20T10:58:49;3.70;;;3.17;;
71759;SDS011;59919;48.112;16.280;2023-05-20T11:01:23;3.65;;;3.35;;
71759;SDS011;59919;48.112;16.280;2023-05-20T11:04:00;4.05;;;3.65;;
71759;SDS011;59919;48.112;16.280;2023-05-20T11:06:36;3.78;;;3.38;;
71759;SDS011;59919;48.112;16.280;2023-05-20T11:09:07;4.00;;;3.60;;
71759;SDS011;59919;48.112;16.280;2023-05-20T11:11:41;4.20;;;3.35;;
71759;SDS011;59919;48.112;16.280;2023-05-20T11:14:15;4.05;;;3.65;;
71759;SDS011;59919;48.112;16.280;2023-05-20T11:16:51;3.63;;;3.33;;
71759;SDS011;59919;48.112;16.280;2023-05-20T11:19:25;3.95;;;3.58;;
71759;SDS011;59919;48.112;16.280;2023-05-20T11:21:57;4.32;;;3.80;;
71759;SDS011;59919;48.112;16.280;2023-05-20T11:24:28;3.47;;;3.17;;
71759;SDS011;59919;48.112;16.280;2023-05-20T11:26:59;3.63;;;3.20;;
71759;SDS011;59919;48.112;16.280;2023-05-20T11:29:31;3.60;;;3.30;;
71759;SDS011;59919;48.112;16.280;2023-05-20T11:32:02;4.10;;;3.47;;
71759;SDS011;59919;48.112;16.280;2023-05-20T11:34:34;3.85;;;3.45;;
71759;SDS011;59919;48.112;16.280;2023-05-20T11:37:07;4.07;;;3.65;;
71759;SDS011;59919;48.112;16.280;2023-05-20T11:39:40;3.38;;;3.08;;
71759;SDS011;59919;48.112;16.280;2023-05-20T11:42:13;3.67;;;3.20;;
71759;SDS011;59919;48.112;16.280;2023-05-20T11:44:46;4.03;;;3.17;;
71759;SDS011;59919;48.112;16.280;2023-05-20T11:47:23;3.72;;;3.35;;
71759;SDS011;59919;48.112;16.280;2023-05-20T11:49:57;3.70;;;3.40;;
71759;SDS011;59919;48.112;16.280;2023-05-20T11:52:30;3.72;;;3.35;;
71759;SDS011;59919;48.112;16.280;2023-05-20T11:55:08;4.10;;;2.95;;
71759;SDS011;59919;48.112;16.280;2023-05-20T11:57:43;3.35;;;3.05;;
71759;SDS011;59919;48.112;16.280;2023-05-20T12:00:16;3.58;;;3.28;;
71759;SDS011;59919;48.112;16.280;2023-05-20T12:02:47;3.47;;;3.17;;
71759;SDS011;59919;48.112;16.280;2023-05-20T12:05:24;3.63;;;3.33;;
71759;SDS011;59919;48.112;16.280;2023-05-20T12:07:55;3.63;;;3.33;;
71759;SDS011;59919;48.112;16.280;2023-05-20T12:10:26;3.30;;;3.00;;
71759;SDS011;59919;48.112;16.280;2023-05-20T12:12:58;3.55;;;3.25;;
71759;SDS011;59919;48.112;16.280;2023-05-20T12:15:29;3.95;;;3.55;;
71759;SDS011;59919;48.112;16.280;2023-05-20T12:18:04;3.10;;;2.85;;
71759;SDS011;59919;48.112;16.280;2023-05-20T12:20:36;3.35;;;3.00;;
71759;SDS011;59919;48.112;16.280;2023-05-20T12:23:09;3.58;;;3.17;;
71759;SDS011;59919;48.112;16.280;2023-05-20T12:25:45;3.08;;;2.85;;
71759;SDS011;59919;48.112;16.280;2023-05-20T12:28:21;3.45;;;3.15;;
71759;SDS011;59919;48.112;16.280;2023-05-20T12:30:53;3.25;;;2.95;;
71759;SDS011;59919;48.112;16.280;2023-05-20T12:33:26;3.38;;;3.08;;
71759;SDS011;59919;48.112;16.280;2023-05-20T12:36:03;3.17;;;2.88;;
71759;SDS011;59919;48.112;16.280;2023-05-20T12:38:38;3.78;;;3.10;;
71759;SDS011;59919;48.112;16.280;2023-05-20T12:41:09;3.22;;;2.92;;
71759;SDS011;59919;48.112;16.280;2023-05-20T12:43:43;3.08;;;2.78;;
71759;SDS011;59919;48.112;16.280;2023-05-20T12:46:14;3.40;;;3.10;;
71759;SDS011;59919;48.112;16.280;2023-05-20T12:48:46;3.03;;;2.72;;
71759;SDS011;59919;48.112;16.280;2023-05-20T12:51:23;3.00;;;2.67;;
71759;SDS011;59919;48.112;16.280;2023-05-20T12:53:56;3.25;;;2.90;;
71759;SDS011;59919;48.112;16.280;2023-05-20T12:56:33;2.95;;;2.70;;
71759;SDS011;59919;48.112;16.280;2023-05-20T12:59:06;2.90;;;2.70;;
71759;SDS011;59919;48.112;16.280;2023-05-20T13:01:38;3.30;;;3.00;;
71759;SDS011;59919;48.112;16.280;2023-05-20T13:04:11;3.33;;;3.03;;
71759;SDS011;59919;48.112;16.280;2023-05-20T13:06:44;3.45;;;2.90;;
71759;SDS011;59919;48.112;16.280;2023-05-20T13:09:16;3.20;;;2.90;;
71759;SDS011;59919;48.112;16.280;2023-05-20T13:11:47;3.45;;;2.58;;
71759;SDS011;59919;48.112;16.280;2023-05-20T13:14:23;2.85;;;2.60;;
71759;SDS011;59919;48.112;16.280;2023-05-20T13:16:55;3.20;;;2.90;;
71759;SDS011;59919;48.112;16.280;2023-05-20T13:19:31;3.42;;;2.90;;
71759;SDS011;59919;48.112;16.280;2023-05-20T13:22:03;3.22;;;2.90;;
71759;SDS011;59919;48.112;16.280;2023-05-20T13:24:38;3.22;;;2.92;;
71759;SDS011;59919;48.112;16.280;2023-05-20T13:27:09;3.40;;;2.88;;
71759;SDS011;59919;48.112;16.280;2023-05-20T13:29:43;3.15;;;2.75;;
71759;SDS011;59919;48.112;16.280;2023-05-20T13:32:14;2.70;;;2.50;;
71759;SDS011;59919;48.112;16.280;2023-05-20T13:34:45;2.75;;;2.55;;
71759;SDS011;59919;48.112;16.280;2023-05-20T13:37:16;3.15;;;2.80;;
71759;SDS011;59919;48.112;16.280;2023-05-20T13:39:47;3.05;;;2.75;;
71759;SDS011;59919;48.112;16.280;2023-05-20T13:42:20;2.90;;;2.60;;
71759;SDS011;59919;48.112;16.280;2023-05-20T13:44:55;3.25;;;2.92;;
71759;SDS011;59919;48.112;16.280;2023-05-20T13:47:26;3.08;;;2.80;;
71759;SDS011;59919;48.112;16.280;2023-05-20T13:49:57;2.92;;;2.60;;
71759;SDS011;59919;48.112;16.280;2023-05-20T13:52:33;3.15;;;2.85;;
71759;SDS011;59919;48.112;16.280;2023-05-20T13:55:04;3.28;;;2.97;;
71759;SDS011;59919;48.112;16.280;2023-05-20T13:57:38;2.60;;;2.20;;
71759;SDS011;59919;48.112;16.280;2023-05-20T14:00:10;2.95;;;2.65;;
71759;SDS011;59919;48.112;16.280;2023-05-20T14:02:44;2.75;;;2.53;;
71759;SDS011;59919;48.112;16.280;2023-05-20T14:05:18;2.70;;;2.50;;
71759;SDS011;59919;48.112;16.280;2023-05-20T14:07:49;3.15;;;2.85;;
71759;SDS011;59919;48.112;16.280;2023-05-20T14:10:23;2.67;;;2.47;;
71759;SDS011;59919;48.112;16.280;2023-05-20T14:12:58;2.97;;;2.70;;
71759;SDS011;59919;48.112;16.280;2023-05-20T14:15:31;2.90;;;2.47;;
71759;SDS011;59919;48.112;16.280;2023-05-20T14:18:02;2.55;;;2.35;;
71759;SDS011;59919;48.112;16.280;2023-05-20T14:20:36;2.75;;;2.53;;
71759;SDS011;59919;48.112;16.280;2023-05-20T14:23:10;2.90;;;2.60;;
71759;SDS011;59919;48.112;16.280;2023-05-20T14:25:45;3.13;;;2.83;;
71759;SDS011;59919;48.112;16.280;2023-05-20T14:28:16;2.53;;;2.33;;
71759;SDS011;59919;48.112;16.280;2023-05-20T14:30:51;2.80;;;2.50;;
71759;SDS011;59919;48.112;16.280;2023-05-20T14:33:26;2.70;;;2.50;;
71759;SDS011;59919;48.112;16.280;2023-05-20T14:35:57;2.47;;;2.28;;
71759;SDS011;59919;48.112;16.280;2023-05-20T14:38:28;3.00;;;2.70;;
71759;SDS011;59919;48.112;16.280;2023-05-20T14:41:02;2.72;;;2.53;;
71759;SDS011;59919;48.112;16.280;2023-05-20T14:43:34;2.88;;;2.58;;
71759;SDS011;59919;48.112;16.280;2023-05-20T14:46:08;2.65;;;2.45;;
71759;SDS011;59919;48.112;16.280;2023-05-20T14:48:39;2.50;;;2.30;;
71759;SDS011;59919;48.112;16.280;2023-05-20T14:51:13;2.80;;;2.60;;
71759;SDS011;59919;48.112;16.280;2023-05-20T14:53:44;2.58;;;2.28;;
71759;SDS011;59919;48.112;16.280;2023-05-20T14:56:15;2.70;;;2.50;;
71759;SDS011;59919;48.112;16.280;2023-05-20T14:58:46;2.42;;;2.22;;
71759;SDS011;59919;48.112;16.280;2023-05-20T15:01:17;3.15;;;2.75;;
71759;SDS011;59919;48.112;16.280;2023-05-20T15:03:48;2.75;;;2.55;;
71759;SDS011;59919;48.112;16.280;2023-05-20T15:06:22;2.63;;;2.40;;
71759;SDS011;59919;48.112;16.280;2023-05-20T15:09:01;2.78;;;2.50;;
71759;SDS011;59919;48.112;16.280;2023-05-20T15:14:11;2.85;;;2.50;;
71759;SDS011;59919;48.112;16.280;2023-05-20T15:16:45;2.53;;;2.20;;
71759;SDS011;59919;48.112;16.280;2023-05-20T15:19:19;2.22;;;2.03;;
71759;SDS011;59919;48.112;16.280;2023-05-20T15:21:56;2.55;;;2.08;;
71759;SDS011;59919;48.112;16.280;2023-05-20T15:24:30;2.80;;;2.50;;
71759;SDS011;59919;48.112;16.280;2023-05-20T15:27:03;2.45;;;2.25;;
71759;SDS011;59919;48.112;16.280;2023-05-20T15:29:37;2.67;;;2.47;;
71759;SDS011;59919;48.112;16.280;2023-05-20T15:32:10;3.58;;;2.83;;
71759;SDS011;59919;48.112;16.280;2023-05-20T15:34:45;2.30;;;2.10;;